Airfield :
LOGIN :

Register | Disclaimer

   EN    FR    IT 

 










Legend :    VFR   Marginal VFR   IFR   Intensive IFR   Very Intensive IFR
Visi :
Ceiling :
>= 8 km
>= 3000ft
5 to 8 km
1000 to 3000 ft
1500m to 5 km
500 to 1000 ft
800 to 1500m
200 to 500 ft
< 800m
< 200 ft
Symbols :   Thunderstorms  Fog  Heavy snow  Heavy precipitations  Wind > 20 kt
SIGMETs :     Misc.  Thunderstorms  Icing  Turbulence  Mountain Waves  Volcanic Ashes






- Airport Elevation : 55 ft
- IATA code : DSA


EGCN - Robin Hood Doncaster Sheffield

CURRENT METAR :
  • 201450Z 17010KT 9999 FEW032 SCT037 17/12 Q0998

EXPIRED METARs :
  • 201420Z 17009KT 9999 FEW034 SCT040 17/12 Q0998
  • 201350Z 18010KT 9999 FEW042 17/12 Q0998
  • 201320Z 18011KT 9999 FEW035 17/12 Q0998
  • 201250Z 18013KT 9999 FEW027 SCT034 17/12 Q0998
  • 201220Z 18013KT 9999 FEW024 SCT029 16/13 Q0998

TAF TAF EGCN
Valid from the 20 at 12:00 until the 21 at 12:00 UTC


201055Z 2012/2112 19009KT 9999 SCT025
PROB30
TEMPO 2021/2103 7000 SHRA
TEMPO 2100/2112 BKN006
PROB30
TEMPO 2103/2109 3000 RADZ BKN003



MET'MAP, your aeronautical weather chart ! - Copyright ORBIFLY December 2007 - Disclaimer

ORBIFLY MET'MAP TEAM :

Programming & Development : Alexandra Zaïnal
Concept & original design : Baudouin d'Aumeries
Assistance for programming : Marc-Olivier Méhu
Technical & hardware support : Manuel Goepfert

Contact : metmap@orbifly.com




SOURCES & CREDITS :

   NOAA